Time;durP1;ratioP1;P1;durP2;ratioP2;P2;SDS_P1;SDS_P2;PMS_P1;PMS_P2;Temp;Humidity;BMP_temperature;BMP_pressure;BME280_temperature;BME280_humidity;BME280_pressure;Samples;Min_cycle;Max_cycle;Signal;HPM_P1;HPM_P2
2022/12/03 00:00:47;;;;;;;10.07;6.13;;;3.60;99.90;;;3.59;99.87;100918.63;5009950;28;20200;-65
2022/12/03 00:03:14;;;;;;;10.80;6.93;;;3.60;99.90;;;3.58;99.66;100919.50;5010118;28;20708;-65
2022/12/03 00:05:41;;;;;;;10.25;6.47;;;3.60;99.90;;;3.61;100.00;100922.00;5009329;28;20207;-65
2022/12/03 00:08:14;;;;;;;10.98;6.07;;;3.60;99.90;;;3.48;100.00;100919.94;5010244;28;20263;-64
2022/12/03 00:10:41;;;;;;;4.28;3.35;;;3.60;99.90;;;3.42;100.00;100925.31;5010380;28;20211;-64
2022/12/03 00:13:08;;;;;;;13.15;6.35;;;3.60;99.90;;;3.58;99.78;100916.94;5009065;28;20230;-64
2022/12/03 00:15:35;;;;;;;7.32;4.82;;;3.60;99.90;;;3.53;100.00;100921.44;5011304;28;20199;-64
2022/12/03 00:18:02;;;;;;;7.93;5.50;;;3.60;99.90;;;3.59;100.00;100925.53;5010298;28;20199;-64
2022/12/03 00:20:29;;;;;;;10.52;5.60;;;3.60;99.90;;;3.57;99.96;100922.16;5011770;28;20218;-64
2022/12/03 00:22:56;;;;;;;9.05;6.50;;;3.60;99.90;;;3.66;99.49;100921.81;4992242;28;20281;-64
2022/12/03 00:25:23;;;;;;;10.00;6.43;;;3.70;99.90;;;3.54;99.34;100920.53;5030104;28;20204;-64
2022/12/03 00:27:50;;;;;;;8.88;5.82;;;3.70;99.90;;;3.58;99.05;100923.81;5010464;28;20200;-64
2022/12/03 00:30:17;;;;;;;12.82;6.60;;;3.60;99.90;;;3.68;98.54;100920.00;5010320;28;20239;-64
2022/12/03 00:32:44;;;;;;;9.98;6.63;;;3.70;99.90;;;3.49;100.00;100919.03;4992812;28;20669;-64
2022/12/03 00:35:11;;;;;;;11.30;7.30;;;3.60;99.90;;;3.60;99.12;100914.31;5010103;28;20214;-64
2022/12/03 00:37:38;;;;;;;7.60;4.53;;;3.60;99.90;;;3.60;98.96;100909.97;5010173;28;20200;-64
2022/12/03 00:40:06;;;;;;;11.23;6.40;;;3.60;99.90;;;3.56;99.07;100912.72;5010030;28;20607;-63
2022/12/03 00:42:33;;;;;;;8.60;5.10;;;3.70;99.90;;;3.58;99.56;100906.63;5009881;28;20209;-68
2022/12/03 00:45:00;;;;;;;11.75;6.53;;;3.60;99.90;;;3.64;98.54;100903.78;5010465;28;20291;-64
2022/12/03 00:47:27;;;;;;;10.27;7.03;;;3.70;99.90;;;3.51;100.00;100907.78;5010493;28;20203;-65
2022/12/03 00:49:54;;;;;;;8.43;5.50;;;3.60;99.90;;;3.47;100.00;100908.75;5009855;28;20219;-65
2022/12/03 00:52:21;;;;;;;8.38;5.30;;;3.60;99.90;;;3.66;98.57;100908.91;5009758;28;20199;-65
2022/12/03 00:54:48;;;;;;;10.95;5.63;;;3.60;99.90;;;3.58;98.48;100905.75;5009962;28;20239;-65
2022/12/03 00:57:14;;;;;;;6.97;4.20;;;3.60;99.90;;;3.67;98.64;100911.44;5009641;28;20203;-65
2022/12/03 00:59:41;;;;;;;10.07;5.18;;;3.60;99.90;;;3.69;98.52;100911.34;5010250;28;20238;-66
2022/12/03 01:02:08;;;;;;;10.90;7.95;;;3.60;99.90;;;3.64;99.31;100908.94;5011330;28;20250;-66
2022/12/03 01:04:35;;;;;;;11.18;7.15;;;3.60;99.90;;;3.53;99.27;100907.69;5011446;28;20211;-65
2022/12/03 01:07:03;;;;;;;10.38;5.95;;;3.60;99.90;;;3.67;97.81;100903.69;5014428;28;20306;-64
2022/12/03 01:09:30;;;;;;;9.07;5.93;;;3.70;99.90;;;3.64;98.74;100903.78;5013819;28;20218;-64
2022/12/03 01:11:57;;;;;;;10.80;6.63;;;3.60;99.90;;;3.36;99.22;100907.50;5012083;28;20207;-64
2022/12/03 01:14:23;;;;;;;13.45;6.22;;;3.60;99.90;;;3.53;99.54;100910.28;5013214;28;20791;-65
2022/12/03 01:16:50;;;;;;;9.07;5.70;;;3.60;99.90;;;3.48;99.12;100907.03;5012506;28;20199;-64
2022/12/03 01:19:18;;;;;;;10.27;5.75;;;3.50;99.90;;;3.54;98.67;100912.78;5014394;28;20234;-66
2022/12/03 01:21:49;;;;;;;9.15;5.40;;;3.50;99.90;;;3.54;98.82;100906.78;5013203;28;20302;-64
2022/12/03 01:24:17;;;;;;;10.57;5.97;;;3.50;99.90;;;3.48;98.95;100920.78;5013562;28;20207;-66
2022/12/03 01:26:44;;;;;;;9.00;4.82;;;3.50;99.90;;;3.53;98.99;100907.69;4998699;28;20210;-65
2022/12/03 01:29:11;;;;;;;7.90;5.07;;;3.50;99.90;;;3.36;99.87;100917.81;5006370;28;20715;-63
2022/12/03 01:34:24;;;;;;;5.65;3.88;;;3.50;99.90;;;3.54;98.45;100924.84;5003580;28;20769;-65
2022/12/03 01:36:53;;;;;;;7.82;5.63;;;3.60;99.90;;;3.70;98.04;100931.13;5012912;28;20205;-65
2022/12/03 01:39:20;;;;;;;9.13;5.50;;;3.60;99.90;;;3.65;97.00;100922.69;5013202;28;20222;-66
2022/12/03 01:41:50;;;;;;;9.95;6.22;;;3.70;99.90;;;3.52;98.37;100931.81;5013213;28;20303;-64
2022/12/03 01:44:30;;;;;;;10.35;4.53;;;3.60;99.90;;;3.47;99.32;100931.97;5012052;28;20636;-65
2022/12/03 01:47:01;;;;;;;9.57;5.95;;;3.60;99.90;;;3.51;98.61;100922.41;4995857;28;20211;-67
2022/12/03 01:49:37;;;;;;;13.45;7.30;;;3.60;99.90;;;3.40;99.11;100930.56;4999984;28;20589;-64
2022/12/03 01:52:04;;;;;;;11.77;6.00;;;3.60;99.90;;;3.42;99.09;100931.34;5012357;28;20229;-65
2022/12/03 01:54:39;;;;;;;10.48;6.20;;;3.50;99.90;;;3.56;98.26;100926.47;4986468;28;20216;-67
2022/12/03 01:57:20;;;;;;;9.07;5.75;;;3.50;99.90;;;3.46;99.27;100927.72;4995809;28;20203;-65
2022/12/03 01:59:47;;;;;;;12.75;6.45;;;3.50;99.90;;;3.47;99.24;100926.81;5012571;28;20257;-64
2022/12/03 02:02:26;;;;;;;12.40;6.28;;;3.50;99.90;;;3.49;99.15;100930.19;4994727;28;20747;-65
2022/12/03 02:04:54;;;;;;;11.68;5.47;;;3.50;99.90;;;3.46;99.14;100932.03;5013092;28;20203;-65
2022/12/03 02:07:29;;;;;;;10.18;5.72;;;3.50;99.90;;;3.50;99.69;100933.59;5011523;28;20286;-64
2022/12/03 02:09:59;;;;;;;8.18;4.78;;;3.50;99.90;;;3.66;97.87;100926.97;5012800;28;20234;-65
2022/12/03 02:12:33;;;;;;;9.82;5.07;;;3.60;99.90;;;3.54;98.77;100930.84;5010622;28;20200;-64
2022/12/03 02:15:01;;;;;;;9.00;5.40;;;3.60;99.90;;;3.66;97.76;100921.81;4993654;28;20216;-66
2022/12/03 02:17:28;;;;;;;12.05;7.30;;;3.60;99.90;;;3.68;97.42;100923.44;5013427;28;20199;-65
2022/12/03 02:19:55;;;;;;;11.02;6.18;;;3.70;99.90;;;3.63;97.65;100924.50;5010988;28;20724;-66
2022/12/03 02:22:35;;;;;;;12.27;6.43;;;3.70;99.90;;;3.63;98.53;100924.50;5010997;28;20207;-64
2022/12/03 02:25:12;;;;;;;10.68;5.70;;;3.70;99.90;;;3.74;98.04;100924.94;4999163;28;20206;-64
2022/12/03 02:27:39;;;;;;;10.80;6.32;;;3.70;99.90;;;3.75;98.04;100918.84;4993205;28;20203;-64
2022/12/03 02:30:09;;;;;;;12.80;5.93;;;3.70;99.90;;;3.70;98.02;100920.78;5018632;22;20610;-64
2022/12/03 02:32:37;;;;;;;10.68;5.60;;;3.70;99.90;;;3.73;97.70;100921.50;5014606;28;20667;-64
2022/12/03 02:35:04;;;;;;;10.80;6.75;;;3.70;99.90;;;3.83;96.90;100929.72;5013178;28;20718;-64
2022/12/03 02:37:36;;;;;;;12.23;6.60;;;3.80;99.90;;;3.78;97.16;100918.75;4998482;28;20211;-64
2022/12/03 02:40:10;;;;;;;10.02;5.65;;;3.80;99.90;;;3.94;97.17;100930.13;5012472;28;20235;-64
2022/12/03 02:42:38;;;;;;;11.10;6.05;;;3.80;99.90;;;3.86;97.37;100927.00;5014374;28;20572;-64
2022/12/03 02:45:16;;;;;;;15.50;8.43;;;3.80;99.90;;;3.86;96.85;100930.44;5030412;28;20208;-64
2022/12/03 02:47:57;;;;;;;11.52;7.13;;;3.80;99.90;;;4.01;95.58;100917.81;5027268;28;20211;-63
2022/12/03 02:50:33;;;;;;;10.60;5.60;;;3.90;99.90;;;4.02;95.33;100922.94;5030262;28;20223;-65
2022/12/03 02:53:05;;;;;;;9.30;6.22;;;3.90;99.90;;;4.12;94.50;100920.81;5014583;28;20202;-64
2022/12/03 02:55:33;;;;;;;11.70;6.57;;;4.00;99.90;;;3.87;95.81;100916.66;5012931;28;20207;-63
2022/12/03 02:58:04;;;;;;;13.65;6.65;;;3.90;99.90;;;3.93;96.38;100920.72;5031995;28;20204;-64
2022/12/03 03:00:34;;;;;;;12.27;6.00;;;3.90;99.90;;;3.98;96.14;100921.38;5013857;28;20231;-64
2022/12/03 03:03:04;;;;;;;9.25;5.03;;;3.90;99.90;;;3.85;96.03;100922.78;5014862;28;20198;-64
2022/12/03 03:05:32;;;;;;;10.70;5.35;;;3.90;99.90;;;3.98;95.91;100926.53;4998288;28;20584;-63
2022/12/03 03:08:00;;;;;;;16.20;7.03;;;3.90;99.90;;;3.82;96.35;100922.88;5014779;28;20210;-62
2022/12/03 03:10:28;;;;;;;15.82;8.00;;;3.90;99.90;;;3.89;96.06;100921.75;5028125;28;20226;-63
2022/12/03 03:12:55;;;;;;;11.82;6.18;;;3.90;99.90;;;3.82;96.61;100921.16;5009407;28;20211;-64
2022/12/03 03:15:24;;;;;;;12.00;7.05;;;3.80;99.90;;;3.91;96.02;100930.25;5003791;28;20223;-64
2022/12/03 03:17:51;;;;;;;11.55;5.25;;;3.90;99.90;;;3.97;96.14;100921.41;5030893;28;20660;-64
2022/12/03 03:20:18;;;;;;;11.48;5.63;;;3.90;99.90;;;3.95;96.46;100926.66;5009665;28;20227;-64
2022/12/03 03:22:45;;;;;;;12.52;5.85;;;3.90;99.90;;;3.86;96.90;100921.84;5031261;28;20230;-64
2022/12/03 03:25:17;;;;;;;12.35;6.88;;;3.80;99.90;;;3.72;98.10;100919.00;5028398;28;20219;-64
2022/12/03 03:27:44;;;;;;;16.42;7.68;;;3.80;99.90;;;3.70;97.64;100918.22;5014217;28;20195;-64
2022/12/03 03:30:13;;;;;;;14.45;6.90;;;3.80;99.90;;;3.79;97.64;100920.44;5028906;28;20235;-64
2022/12/03 03:32:41;;;;;;;15.75;7.07;;;3.80;99.90;;;3.68;97.81;100917.44;5031751;28;20204;-64
2022/12/03 03:35:09;;;;;;;11.18;5.95;;;3.80;99.90;;;3.79;97.02;100921.25;4999526;28;20312;-63
2022/12/03 03:37:36;;;;;;;13.35;7.43;;;3.80;99.90;;;3.85;96.87;100915.03;5029920;28;20203;-64
2022/12/03 03:40:03;;;;;;;14.60;7.97;;;3.80;99.90;;;3.72;96.57;100922.41;5022610;28;20221;-64
2022/12/03 03:42:30;;;;;;;11.32;6.35;;;3.80;99.90;;;3.82;97.31;100918.56;5012356;28;20203;-64
2022/12/03 03:44:58;;;;;;;13.38;6.90;;;3.80;99.90;;;3.81;96.37;100916.06;4999838;28;20198;-64
2022/12/03 03:47:25;;;;;;;13.35;6.90;;;3.80;99.90;;;3.60;97.37;100917.72;5010186;28;20210;-63
2022/12/03 03:49:52;;;;;;;14.13;6.35;;;3.80;99.90;;;3.64;97.68;100918.47;5014344;28;20214;-64
2022/12/03 03:52:20;;;;;;;19.35;7.45;;;3.70;99.90;;;3.67;97.75;100918.31;5011976;28;20207;-64
2022/12/03 03:54:47;;;;;;;10.82;6.50;;;3.70;99.90;;;3.89;96.73;100921.75;5007409;28;20225;-64
2022/12/03 03:57:14;;;;;;;15.77;7.22;;;3.80;99.90;;;3.75;97.01;100921.44;5030620;28;20207;-64
2022/12/03 03:59:41;;;;;;;12.75;6.53;;;3.80;99.90;;;4.00;96.20;100922.16;5030482;28;20257;-62
2022/12/03 04:02:20;;;;;;;16.45;8.32;;;3.90;99.90;;;4.15;94.57;100916.38;5011735;28;20203;-64
2022/12/03 04:04:48;;;;;;;15.20;7.05;;;4.00;99.90;;;4.07;95.32;100912.44;5026585;28;20654;-64
2022/12/03 04:07:15;;;;;;;13.27;6.70;;;4.00;99.90;;;4.02;95.31;100912.59;5010741;28;20212;-64
2022/12/03 04:09:43;;;;;;;13.18;6.47;;;4.00;99.90;;;3.96;95.43;100912.88;5010253;28;20231;-64
2022/12/03 04:14:57;;;;;;;21.23;9.25;;;3.90;99.90;;;3.74;96.08;100910.28;5014392;28;20219;-64
2022/12/03 04:17:25;;;;;;;15.75;8.30;;;3.90;99.90;;;3.76;96.21;100907.63;5030409;28;20279;-64
2022/12/03 04:19:52;;;;;;;18.83;8.10;;;3.80;99.90;;;3.90;96.03;100910.50;5027984;28;20284;-64
2022/12/03 04:30:37;;;;;;;15.63;7.82;;;3.90;99.90;;;4.11;94.89;100909.63;5011465;28;20227;-64
2022/12/03 04:35:49;;;;;;;20.55;9.35;;;4.00;99.90;;;3.96;95.38;100906.84;5024300;28;20223;-64
2022/12/03 04:38:17;;;;;;;15.65;8.05;;;3.90;99.90;;;3.77;96.22;100898.97;5011557;28;20200;-64
2022/12/03 04:43:33;;;;;;;15.60;6.63;;;3.90;99.90;;;3.99;94.61;100896.38;5033006;28;20680;-63
2022/12/03 04:46:01;;;;;;;15.82;6.85;;;3.90;99.90;;;3.98;94.94;100899.88;5032782;28;20970;-64
2022/12/03 04:48:28;;;;;;;17.77;8.30;;;3.90;99.90;;;4.12;94.07;100902.72;5032803;28;20203;-64
2022/12/03 04:50:55;;;;;;;15.88;7.82;;;4.00;99.90;;;3.94;93.85;100904.31;5033255;28;20228;-63
2022/12/03 04:53:22;;;;;;;16.77;8.20;;;4.00;99.90;;;3.76;95.21;100890.44;5032514;28;20201;-64
2022/12/03 04:55:49;;;;;;;24.48;9.85;;;3.90;99.90;;;3.76;95.34;100900.75;5016379;28;20231;-63
2022/12/03 04:58:16;;;;;;;19.52;7.35;;;3.90;99.90;;;3.55;95.65;100896.44;5032764;28;20203;-64
2022/12/03 05:00:43;;;;;;;25.55;10.30;;;3.80;99.90;;;3.53;97.10;100899.97;5016219;28;20230;-64
2022/12/03 05:03:09;;;;;;;18.88;9.52;;;3.70;99.90;;;3.71;95.74;100897.50;5033356;28;20195;-64
2022/12/03 05:05:36;;;;;;;22.90;10.45;;;3.70;99.90;;;3.85;95.10;100907.28;5024570;28;20204;-64
2022/12/03 05:08:03;;;;;;;18.10;8.93;;;3.80;99.90;;;3.71;96.05;100894.06;5034035;28;20210;-64
2022/12/03 05:10:30;;;;;;;19.23;8.18;;;3.70;99.90;;;3.73;95.78;100894.84;5032412;28;20277;-64
2022/12/03 05:12:57;;;;;;;21.77;9.57;;;3.70;99.90;;;3.77;96.17;100886.06;5017037;28;20294;-64
2022/12/03 05:15:24;;;;;;;19.70;9.15;;;3.80;99.90;;;3.66;96.13;100885.69;5032390;28;20237;-64
2022/12/03 05:17:51;;;;;;;16.45;7.85;;;3.70;99.90;;;3.82;95.33;100881.56;5016465;28;20194;-64
2022/12/03 05:23:03;;;;;;;18.95;8.32;;;3.80;99.90;;;3.79;96.14;100879.16;5033094;28;20203;-64
2022/12/03 05:25:30;;;;;;;13.45;6.70;;;3.80;99.90;;;3.69;95.78;100883.81;5013409;28;20208;-64
2022/12/03 05:27:57;;;;;;;17.67;8.77;;;3.80;99.90;;;3.68;95.48;100877.00;5029654;28;20762;-64
2022/12/03 05:30:24;;;;;;;8.10;5.05;;;3.80;99.90;;;3.74;95.43;100881.91;5029799;28;20231;-64
2022/12/03 05:32:51;;;;;;;18.42;9.10;;;3.80;99.90;;;3.75;95.39;100877.56;5033156;28;20289;-65
2022/12/03 05:35:18;;;;;;;22.73;9.80;;;3.80;99.90;;;3.80;95.29;100888.53;5031708;28;20339;-64
2022/12/03 05:37:45;;;;;;;18.77;8.93;;;3.80;99.90;;;3.70;96.22;100887.25;5032509;28;20203;-64
2022/12/03 05:40:13;;;;;;;19.00;8.63;;;3.70;99.90;;;3.66;96.07;100883.91;5032258;28;20784;-64
2022/12/03 05:43:00;;;;;;;16.30;7.05;;;3.70;99.90;;;3.60;96.07;100883.34;5032624;28;20717;-65
2022/12/03 05:45:37;;;;;;;19.02;8.38;;;3.70;99.90;;;3.58;96.42;100885.97;5031976;28;20577;-64
2022/12/03 05:48:07;;;;;;;19.92;8.15;;;3.70;99.90;;;3.78;94.69;100883.47;5015004;28;20722;-64
2022/12/03 05:50:37;;;;;;;16.55;6.70;;;3.70;99.90;;;3.80;95.26;100884.22;5015052;28;20228;-64
2022/12/03 05:53:04;;;;;;;19.35;8.27;;;3.70;99.90;;;3.73;95.36;100881.94;5014010;28;20214;-64
2022/12/03 05:55:31;;;;;;;14.38;6.65;;;3.80;99.90;;;3.68;96.25;100886.47;5032228;28;20250;-64
2022/12/03 05:57:58;;;;;;;19.95;9.02;;;3.70;99.90;;;3.64;96.49;100880.56;5033795;28;20204;-63
2022/12/03 06:00:31;;;;;;;15.40;7.90;;;3.70;99.90;;;3.75;95.65;100882.72;5030672;28;20297;-64
2022/12/03 06:03:06;;;;;;;20.15;10.10;;;3.70;99.90;;;3.51;96.25;100876.81;5012854;28;20202;-64
2022/12/03 06:05:34;;;;;;;14.02;6.78;;;3.70;99.90;;;3.53;96.46;100881.91;5012616;28;20212;-64
2022/12/03 06:08:01;;;;;;;16.50;8.63;;;3.70;99.90;;;3.71;95.87;100886.31;5032008;28;20290;-64
2022/12/03 06:10:28;;;;;;;18.52;8.88;;;3.60;99.90;;;3.48;96.36;100883.81;5031452;28;20710;-64
2022/12/03 06:12:55;;;;;;;18.40;9.77;;;3.70;99.90;;;3.50;96.28;100877.69;5012828;28;20210;-64
2022/12/03 06:15:22;;;;;;;22.35;9.95;;;3.60;99.90;;;3.59;95.83;100874.75;5001240;28;20613;-65
2022/12/03 06:17:49;;;;;;;18.02;8.13;;;3.60;99.90;;;3.49;96.69;100880.34;5030862;28;20210;-63
2022/12/03 06:20:19;;;;;;;22.70;11.80;;;3.60;99.90;;;3.48;96.79;100879.50;5031144;28;20285;-65
2022/12/03 06:22:46;;;;;;;22.88;10.13;;;3.60;99.90;;;3.53;96.63;100876.75;5014571;28;20254;-64
2022/12/03 06:25:14;;;;;;;25.52;9.82;;;3.60;99.90;;;3.51;96.55;100874.22;5032095;28;20218;-65
2022/12/03 06:27:41;;;;;;;21.50;10.90;;;3.60;99.90;;;3.58;96.21;100869.66;5013323;28;20203;-64
2022/12/03 06:30:11;;;;;;;23.35;10.38;;;3.60;99.90;;;3.47;96.23;100869.25;5031211;28;20231;-64
2022/12/03 06:32:38;;;;;;;23.60;11.32;;;3.60;99.90;;;3.49;96.77;100864.88;5031946;28;20209;-64
2022/12/03 06:35:05;;;;;;;19.88;8.88;;;3.50;99.90;;;3.41;96.66;100864.34;5029759;28;20226;-64
2022/12/03 06:37:32;;;;;;;18.42;8.50;;;3.50;99.90;;;3.33;97.21;100858.59;5027032;28;20199;-64
2022/12/03 06:39:59;;;;;;;19.65;8.57;;;3.40;99.90;;;3.52;95.94;100860.41;5029813;28;20292;-64
2022/12/03 06:42:26;;;;;;;16.90;7.45;;;3.50;99.90;;;3.55;96.32;100860.31;5031276;28;20198;-64
2022/12/03 06:44:53;;;;;;;14.95;7.70;;;3.50;99.90;;;3.42;96.57;100858.25;5031887;28;20210;-65
2022/12/03 06:47:23;;;;;;;18.60;8.30;;;3.50;99.90;;;3.29;97.76;100857.91;5031213;28;20285;-63
2022/12/03 06:49:50;;;;;;;19.25;7.85;;;3.40;99.90;;;3.41;97.57;100859.19;5013978;28;20310;-64
2022/12/03 06:52:17;;;;;;;13.45;6.63;;;3.40;99.90;;;3.31;97.38;100863.84;5033028;28;20206;-64
2022/12/03 06:54:43;;;;;;;22.17;9.32;;;3.40;99.90;;;3.34;98.00;100866.31;5010378;28;20229;-64
2022/12/03 06:57:11;;;;;;;16.13;7.63;;;3.40;99.90;;;3.34;98.08;100862.88;5028208;28;20206;-64
2022/12/03 06:59:38;;;;;;;11.38;5.30;;;3.40;99.90;;;3.54;96.16;100870.66;5014065;28;20251;-65
2022/12/03 07:02:05;;;;;;;15.57;7.97;;;3.40;99.90;;;3.60;96.11;100873.84;5027918;28;20635;-65
2022/12/03 07:04:32;;;;;;;15.20;6.43;;;3.50;99.90;;;3.55;95.54;100880.09;5031277;28;20289;-65
2022/12/03 07:06:59;;;;;;;16.23;7.90;;;3.60;99.90;;;3.63;95.55;100873.75;5030402;28;20199;-64
2022/12/03 07:09:25;;;;;;;18.08;8.57;;;3.60;99.90;;;3.51;96.17;100888.88;5031263;28;20232;-64
2022/12/03 07:11:52;;;;;;;17.60;6.80;;;3.60;99.90;;;3.62;95.79;100886.72;5030654;28;20203;-64
2022/12/03 07:14:19;;;;;;;19.30;8.67;;;3.60;99.90;;;3.62;95.45;100894.44;5030889;28;20209;-65
2022/12/03 07:16:46;;;;;;;13.18;5.82;;;3.60;99.90;;;3.76;94.51;100902.47;5029518;28;20196;-64
2022/12/03 07:19:13;;;;;;;4.25;2.97;;;3.60;99.90;;;3.80;94.19;100897.13;5029983;28;20216;-64
2022/12/03 07:21:40;;;;;;;9.10;5.32;;;3.70;99.90;;;3.71;94.86;100902.66;5001335;28;20291;-65
2022/12/03 07:24:08;;;;;;;14.18;5.53;;;3.70;99.90;;;3.70;94.62;100901.00;5020131;28;20204;-63
2022/12/03 07:26:35;;;;;;;9.85;5.45;;;3.70;99.90;;;3.88;94.18;100907.16;5030929;28;20212;-64
2022/12/03 07:29:02;;;;;;;14.60;7.32;;;3.70;99.90;;;3.75;94.50;100903.38;5029577;28;20232;-65
2022/12/03 07:31:29;;;;;;;23.30;9.27;;;3.70;99.90;;;3.86;94.34;100904.63;5018228;28;20207;-65
2022/12/03 07:33:56;;;;;;;17.60;7.95;;;3.80;99.90;;;3.71;94.57;100901.81;5029732;28;20292;-64
2022/12/03 07:36:23;;;;;;;13.95;7.18;;;3.70;99.90;;;3.80;94.82;100904.88;5013400;28;20228;-65
2022/12/03 07:38:50;;;;;;;16.00;7.35;;;3.80;99.90;;;3.78;94.06;100898.94;5030083;28;20210;-65
2022/12/03 07:41:17;;;;;;;16.67;7.22;;;3.80;99.90;;;3.91;93.38;100899.28;5030403;28;20302;-64
2022/12/03 07:43:44;;;;;;;21.25;9.25;;;3.80;99.90;;;3.93;93.55;100900.91;5030968;28;20199;-62
2022/12/03 07:46:11;;;;;;;20.48;9.27;;;3.80;99.90;;;3.71;94.56;100901.81;5031718;28;20214;-64
2022/12/03 07:48:38;;;;;;;19.95;8.95;;;3.80;99.90;;;3.93;94.00;100900.06;5029801;28;20262;-65
2022/12/03 07:51:05;;;;;;;18.52;9.35;;;3.90;99.90;;;4.07;93.63;100900.34;5013136;28;20206;-65
2022/12/03 07:53:34;;;;;;;17.45;8.10;;;3.90;99.90;;;4.04;93.34;100899.63;5030022;28;20286;-65
2022/12/03 07:56:05;;;;;;;19.08;8.07;;;3.90;99.90;;;3.97;92.83;100904.19;5024359;28;20592;-63
2022/12/03 07:58:32;;;;;;;21.35;8.98;;;3.90;99.90;;;3.89;93.76;100901.94;5012547;28;20220;-64
2022/12/03 08:00:59;;;;;;;15.65;8.15;;;3.90;99.90;;;4.04;92.99;100900.47;5028651;28;20671;-65
2022/12/03 08:03:26;;;;;;;16.48;8.10;;;3.90;99.90;;;3.89;93.53;100901.94;5030593;28;20215;-65
2022/12/03 08:05:53;;;;;;;21.08;8.90;;;3.90;99.90;;;4.00;93.21;100913.56;5029638;28;20203;-65
2022/12/03 08:08:20;;;;;;;23.13;8.73;;;3.90;99.90;;;3.81;93.31;100908.31;5030268;28;20200;-64
2022/12/03 08:10:47;;;;;;;20.00;9.13;;;3.90;99.90;;;3.85;93.91;100902.13;5029594;28;20227;-65
2022/12/03 08:13:16;;;;;;;15.13;7.57;;;3.90;99.90;;;3.85;93.56;100902.94;5026595;28;20222;-65
2022/12/03 08:15:44;;;;;;;16.92;8.50;;;3.90;99.90;;;3.98;93.68;100905.03;5031303;28;20226;-65
2022/12/03 08:18:21;;;;;;;14.90;7.80;;;3.90;99.90;;;4.08;92.98;100907.19;5033590;28;20229;-64
2022/12/03 08:20:50;;;;;;;14.25;6.93;;;3.90;99.90;;;4.21;92.44;100898.03;5033696;28;20226;-65
2022/12/03 08:23:23;;;;;;;22.00;8.95;;;4.00;99.90;;;3.98;93.19;100899.88;5016887;28;20203;-64
2022/12/03 08:25:52;;;;;;;17.40;8.52;;;4.00;99.90;;;4.08;93.26;100886.53;5009002;28;20208;-65
2022/12/03 08:28:27;;;;;;;10.88;6.03;;;4.00;99.90;;;4.22;92.23;100889.38;5033043;28;20215;-64
2022/12/03 08:31:11;;;;;;;21.58;9.85;;;4.10;99.90;;;4.05;92.62;100894.38;5040041;23;20231;-66
2022/12/03 08:33:40;;;;;;;18.70;8.65;;;4.10;99.90;;;4.12;92.83;100887.22;5038714;28;20229;-65
2022/12/03 08:36:29;;;;;;;19.40;9.05;;;4.10;99.90;;;4.07;93.11;100894.34;5026536;28;20273;-67
2022/12/03 08:39:01;;;;;;;12.48;6.40;;;4.10;99.90;;;4.21;91.53;100894.59;5012184;28;20197;-65
2022/12/03 08:44:31;;;;;;;14.93;8.50;;;4.20;99.90;;;4.32;91.81;100890.66;5029000;28;20205;-64
2022/12/03 08:47:21;;;;;;;21.05;9.95;;;4.20;99.90;;;4.19;91.42;100899.00;5036389;28;20206;-68
2022/12/03 08:50:06;;;;;;;16.48;7.93;;;4.20;99.90;;;4.50;90.67;100905.41;5039547;28;20219;-65
2022/12/03 08:52:34;;;;;;;15.57;7.45;;;4.30;99.90;;;4.43;90.76;100893.63;5015608;28;20290;-66
2022/12/03 08:55:31;;;;;;;13.93;7.00;;;4.30;99.90;;;4.54;90.30;100882.84;5033081;28;20211;-66
2022/12/03 08:57:58;;;;;;;18.67;9.65;;;4.40;99.90;;;4.56;90.35;100897.38;5016400;28;20203;-66
2022/12/03 09:00:25;;;;;;;15.38;8.07;;;4.40;99.90;;;4.48;91.61;100901.19;5009381;28;20748;-65
2022/12/03 09:02:58;;;;;;;17.08;8.57;;;4.40;99.90;;;4.62;89.85;100891.94;5032438;28;20512;-66
2022/12/03 09:05:29;;;;;;;20.35;9.10;;;4.50;99.90;;;4.85;89.95;100884.94;5014429;28;20212;-65
2022/12/03 09:07:56;;;;;;;16.30;8.98;;;4.60;99.90;;;5.03;89.19;100878.91;5033206;28;20200;-66
2022/12/03 09:10:23;;;;;;;19.45;7.88;;;4.70;99.90;;;5.50;86.83;100880.16;5029848;28;20759;-65
2022/12/03 09:12:50;;;;;;;13.80;6.57;;;5.00;99.90;;;5.56;85.57;100871.28;5030808;28;20209;-66
2022/12/03 09:15:17;;;;;;;17.13;9.00;;;5.20;99.90;;;5.44;84.69;100876.13;5031411;28;20224;-65
2022/12/03 09:17:44;;;;;;;14.25;7.35;;;5.20;99.90;;;5.36;86.64;100872.22;5033958;28;20284;-68
2022/12/03 09:20:11;;;;;;;13.35;7.07;;;5.10;99.90;;;5.61;85.77;100870.16;5031993;28;20221;-65
2022/12/03 09:22:38;;;;;;;15.43;6.68;;;5.20;99.90;;;5.59;84.56;100874.56;5034000;28;20405;-65
2022/12/03 09:25:05;;;;;;;13.82;7.65;;;5.30;99.90;;;5.69;84.03;100880.97;5033820;28;20200;-66
2022/12/03 09:27:32;;;;;;;14.48;7.40;;;5.40;99.90;;;5.84;84.37;100880.25;5031235;28;20198;-67
2022/12/03 09:29:59;;;;;;;16.10;7.78;;;5.50;99.90;;;5.94;83.67;100885.84;5032921;28;20288;-65
2022/12/03 09:32:26;;;;;;;15.00;6.53;;;5.60;99.90;;;6.10;82.97;100885.03;5014618;28;20203;-65
2022/12/03 09:34:53;;;;;;;18.63;9.63;;;5.60;99.90;;;5.96;83.02;100887.44;5029659;28;20202;-65
2022/12/03 09:37:21;;;;;;;15.45;6.45;;;5.70;99.90;;;5.88;82.44;100886.13;5039717;28;20198;-65
2022/12/03 09:39:48;;;;;;;16.58;7.85;;;5.70;99.90;;;5.82;83.32;100891.56;5032342;28;20226;-65
2022/12/03 09:42:15;;;;;;;17.50;7.72;;;5.60;99.90;;;5.84;83.79;100877.69;5031882;28;20202;-66
2022/12/03 09:44:42;;;;;;;22.80;9.40;;;5.60;99.90;;;6.12;83.15;100872.81;5032801;28;20206;-65
2022/12/03 09:47:09;;;;;;;12.35;6.40;;;5.70;99.90;;;6.12;82.58;100880.59;5032794;28;20600;-65
2022/12/03 09:49:37;;;;;;;15.65;7.95;;;5.70;99.90;;;6.52;80.43;100878.56;5011702;28;20222;-65
2022/12/03 09:52:06;;;;;;;18.30;8.67;;;5.90;99.90;;;6.71;79.31;100876.69;5031574;28;20619;-65
2022/12/03 09:54:33;;;;;;;15.33;8.43;;;6.10;99.90;;;6.96;78.26;100880.53;5031842;28;20719;-68
2022/12/03 09:57:03;;;;;;;17.75;9.00;;;6.30;99.90;;;7.12;77.93;100883.16;5031566;28;20653;-64
2022/12/03 09:59:33;;;;;;;19.27;8.27;;;6.50;99.90;;;7.29;76.40;100872.69;5016024;28;20226;-67
2022/12/03 10:02:01;;;;;;;15.80;8.03;;;6.70;99.90;;;7.05;76.74;100866.22;5032128;28;20635;-66
2022/12/03 10:04:29;;;;;;;14.87;7.23;;;6.70;99.90;;;7.37;76.57;100873.09;5032591;28;20624;-66
2022/12/03 10:06:57;;;;;;;13.90;7.53;;;6.80;99.90;;;7.70;75.04;100860.88;5030800;28;21296;-64
2022/12/03 10:09:27;;;;;;;15.57;10.20;;;6.90;99.90;;;7.33;74.68;100852.59;5015093;28;20233;-64
2022/12/03 10:11:58;;;;;;;15.47;9.07;;;6.90;99.90;;;6.77;76.59;100850.47;5013957;28;20735;-65
2022/12/03 10:14:26;;;;;;;13.53;5.80;;;6.70;99.90;;;6.90;76.84;100854.91;5029091;28;20672;-68
2022/12/03 10:16:53;;;;;;;16.40;10.43;;;6.60;99.90;;;6.72;78.38;100852.47;5022935;28;20669;-65
2022/12/03 10:19:30;;;;;;;16.50;9.70;;;6.50;99.90;;;6.76;77.70;100851.38;5021197;28;20645;-67
2022/12/03 10:21:58;;;;;;;17.77;9.32;;;6.50;99.90;;;6.85;76.41;100848.31;5024331;28;20633;-67
2022/12/03 10:24:30;;;;;;;14.40;8.10;;;6.60;99.90;;;6.89;77.04;100849.81;5019816;28;20202;-65
2022/12/03 10:27:42;;;;;;;15.03;8.10;;;6.50;99.90;;;7.01;77.78;100847.41;5029653;28;20633;-66
2022/12/03 10:30:22;;;;;;;13.97;7.63;;;6.60;99.90;;;7.12;77.51;100844.22;5028185;28;21527;-66
2022/12/03 10:32:50;;;;;;;6.67;3.47;;;6.70;99.90;;;7.07;77.35;100841.03;5044578;28;20631;-65
2022/12/03 10:35:20;;;;;;;15.97;8.00;;;6.60;99.90;;;7.15;77.14;100832.84;5032021;28;20655;-65
2022/12/03 10:38:04;;;;;;;11.63;4.97;;;6.70;99.90;;;6.97;76.59;100825.16;5023024;28;20675;-65
2022/12/03 10:40:33;;;;;;;16.73;7.30;;;6.70;99.90;;;7.12;75.71;100836.44;5007099;28;20657;-64
2022/12/03 10:43:13;;;;;;;14.27;7.40;;;6.70;99.90;;;7.19;75.16;100824.81;5028480;28;20628;-64
2022/12/03 10:45:42;;;;;;;12.80;8.07;;;6.70;99.90;;;7.07;76.20;100815.94;5031406;28;20613;-61
2022/12/03 10:48:26;;;;;;;5.90;3.93;;;6.70;99.90;;;7.20;75.08;100818.69;5008416;28;20673;-63
2022/12/03 10:51:00;;;;;;;12.03;7.43;;;6.70;99.90;;;7.11;77.06;100816.63;5042950;28;20643;-63
2022/12/03 10:53:31;;;;;;;18.13;9.50;;;6.70;99.90;;;6.66;77.27;100813.91;5027948;28;20632;-63